Airfield :
LOGIN :

Register | Disclaimer

   EN    FR    IT 

 










Legend :    VFR   Marginal VFR   IFR   Intensive IFR   Very Intensive IFR
Visi :
Ceiling :
>= 8 km
>= 3000ft
5 to 8 km
1000 to 3000 ft
1500m to 5 km
500 to 1000 ft
800 to 1500m
200 to 500 ft
< 800m
< 200 ft
Symbols :   Thunderstorms  Fog  Heavy snow  Heavy precipitations  Wind > 20 kt
SIGMETs :     Misc.  Thunderstorms  Icing  Turbulence  Mountain Waves  Volcanic Ashes






- Airport Elevation : 408 ft
- IATA code : FKB


EDSB - Karlsruhe Baden Baden

CURRENT METAR :
  • 232250Z AUTO 20007KT 7000 // SCT009/// OVC015/// M00/M02 Q1028

EXPIRED METARs :
  • 232150Z 21005KT 6000 OVC009 M00/M02 Q1028
  • 232120Z 21005KT 6000 OVC011 M00/M02 Q1028
  • 232050Z 21006KT 7000 OVC010 M00/M02 Q1028
  • 232020Z 19007KT 8000 OVC010 00/M02 Q1027
  • 231950Z 18007KT 7000 OVC011 00/M02 Q1027

TAF TAF EDSB
Valid from the 23 at 18:00 until the 24 at 18:00 UTC


231700Z 2318/2418 03008KT 8000 BKN012
BECMG 2318/2322 VRB03KT 1200 BCFG BKN005
TEMPO 2323/2410 0400 FZFG VV001
TEMPO 2410/2418 0500 FG BKN003



MET'MAP, your aeronautical weather chart ! - Copyright ORBIFLY December 2007 - Disclaimer

ORBIFLY MET'MAP TEAM :

Programming & Development : Alexandra Zaïnal
Concept & original design : Baudouin d'Aumeries
Assistance for programming : Marc-Olivier Méhu
Technical & hardware support : Manuel Goepfert

Contact : metmap@orbifly.com




SOURCES & CREDITS :

   NOAA